Time;durP1;ratioP1;P1;durP2;ratioP2;P2;SDS_P1;SDS_P2;PMS_P1;PMS_P2;Temp;Humidity;BMP_temperature;BMP_pressure;BME280_temperature;BME280_humidity;BME280_pressure;Samples;Min_cycle;Max_cycle;Signal;HPM_P1;HPM_P2
2021/05/11 00:00:37;;;;;;;6.78;4.05;;;;;;;18.88;38.83;100443.44;1816317;77;21155;-72
2021/05/11 00:03:05;;;;;;;7.30;4.35;;;;;;;18.86;38.69;100442.28;1814082;78;21095;-71
2021/05/11 00:05:34;;;;;;;6.05;4.15;;;;;;;18.87;38.62;100444.45;1803251;78;22139;-71
2021/05/11 00:08:01;;;;;;;4.10;3.65;;;;;;;18.84;38.61;100440.84;1815423;77;21272;-70
2021/05/11 00:10:29;;;;;;;6.80;3.80;;;;;;;18.82;38.57;100443.73;1810097;78;21654;-72
2021/05/11 00:12:56;;;;;;;8.45;4.22;;;;;;;18.80;38.53;100444.45;1796304;77;21633;-72
2021/05/11 00:15:24;;;;;;;8.43;4.62;;;;;;;18.78;38.56;100438.42;1783317;79;21201;-74
2021/05/11 00:17:52;;;;;;;8.15;4.08;;;;;;;18.77;38.50;100430.55;1786562;78;21126;-74
2021/05/11 00:20:21;;;;;;;6.28;4.60;;;;;;;18.76;38.52;100435.11;1780025;79;21201;-73
2021/05/11 00:22:49;;;;;;;8.68;4.20;;;;;;;18.74;38.51;100431.80;1782957;77;21201;-73
2021/05/11 00:25:16;;;;;;;10.95;5.05;;;;;;;18.72;38.49;100419.59;1795869;79;21146;-73
2021/05/11 00:27:43;;;;;;;9.35;4.70;;;;;;;18.69;38.63;100418.11;1800519;78;21535;-74
2021/05/11 00:30:13;;;;;;;8.13;5.10;;;;;;;18.69;38.56;100419.98;1794650;79;21127;-71
2021/05/11 00:32:41;;;;;;;8.60;4.78;;;;;;;18.67;38.57;100415.63;1781691;77;22134;-71
2021/05/11 00:35:09;;;;;;;8.73;4.95;;;;;;;18.65;38.60;100416.87;1782539;78;21154;-71
2021/05/11 00:37:37;;;;;;;10.88;6.10;;;;;;;18.64;38.58;100414.70;1790625;78;21154;-71
2021/05/11 00:40:06;;;;;;;10.82;5.85;;;;;;;18.63;38.59;100416.25;1790113;78;21150;-72
2021/05/11 00:42:34;;;;;;;11.60;5.75;;;;;;;18.61;38.66;100409.72;1790155;77;21174;-72
2021/05/11 00:45:05;;;;;;;10.48;6.10;;;;;;;18.60;38.60;100410.77;1787986;77;21431;-71
2021/05/11 00:47:33;;;;;;;9.83;6.20;;;;;;;18.58;38.61;100414.18;1790683;77;21202;-72
2021/05/11 00:50:01;;;;;;;9.28;6.30;;;;;;;18.57;38.58;100411.69;1791565;79;21206;-74
2021/05/11 00:52:30;;;;;;;10.35;7.45;;;;;;;18.55;38.57;100407.03;1792568;78;21154;-74
2021/05/11 00:54:58;;;;;;;12.73;7.03;;;;;;;18.54;38.59;100407.52;1791226;79;21127;-73
2021/05/11 00:57:25;;;;;;;10.15;6.75;;;;;;;18.53;38.59;100405.06;1787327;79;21639;-74
2021/05/11 00:59:55;;;;;;;13.22;6.92;;;;;;;18.52;38.59;100405.55;1762696;77;21170;-74
2021/05/11 01:02:24;;;;;;;10.30;7.37;;;;;;;18.51;38.60;100399.06;1763070;79;21170;-74
2021/05/11 01:04:52;;;;;;;13.03;7.53;;;;;;;18.51;38.65;100395.02;1762482;78;21202;-74
2021/05/11 01:07:19;;;;;;;12.28;7.53;;;;;;;18.50;38.63;100402.24;1800128;79;21154;-73
2021/05/11 01:09:49;;;;;;;10.10;6.90;;;;;;;18.50;38.64;100405.45;1785745;79;21374;-73
2021/05/11 01:12:17;;;;;;;10.60;7.15;;;;;;;18.50;38.58;100408.14;1778855;79;21127;-73
2021/05/11 01:14:47;;;;;;;10.72;7.28;;;;;;;18.47;38.65;100404.83;1794472;78;21146;-73
2021/05/11 01:17:25;;;;;;;11.15;7.50;;;;;;;18.47;38.67;100399.98;1774603;79;21170;-73
2021/05/11 01:19:57;;;;;;;11.95;6.60;;;;;;;18.46;38.63;100397.78;1780794;79;21154;-74
2021/05/11 01:25:21;;;;;;;10.20;6.75;;;;;;;18.43;38.62;100394.17;1792809;79;21638;-73
2021/05/11 01:27:59;;;;;;;18.98;7.75;;;;;;;18.40;38.64;100395.91;1787194;79;21134;-73
2021/05/11 01:30:43;;;;;;;15.65;7.45;;;;;;;18.39;38.65;100396.95;1785374;79;21187;-73
2021/05/11 01:49:13;;;;;;;9.05;5.30;;;;;;;18.28;38.97;100389.48;1785453;77;21387;-74
2021/05/11 02:24:45;;;;;;;8.20;5.00;;;;;;;18.06;39.69;100395.00;1783357;79;21180;-73
2021/05/11 02:27:12;;;;;;;6.33;4.70;;;;;;;18.06;39.70;100398.21;1780112;79;21153;-73
2021/05/11 02:29:40;;;;;;;5.85;4.67;;;;;;;18.05;39.75;100396.54;1786172;79;21374;-73
2021/05/11 02:32:08;;;;;;;5.60;4.40;;;;;;;18.06;39.75;100397.69;1777574;77;21625;-71
2021/05/11 02:34:36;;;;;;;5.45;4.78;;;;;;;18.05;39.77;100395.20;1787455;77;21170;-72
2021/05/11 02:37:03;;;;;;;6.05;4.42;;;;;;;18.05;39.75;100391.98;1791715;79;21131;-72
2021/05/11 02:39:30;;;;;;;6.42;4.47;;;;;;;18.05;39.73;100394.67;1796104;79;21186;-72
2021/05/11 02:41:58;;;;;;;5.53;4.15;;;;;;;18.05;39.82;100395.20;1783833;78;21414;-73
2021/05/11 02:44:25;;;;;;;6.80;4.20;;;;;;;18.05;39.85;100401.92;1785237;77;21174;-73
2021/05/11 02:46:53;;;;;;;8.08;4.35;;;;;;;18.05;40.02;100400.05;1802275;78;21130;-72
2021/05/11 02:49:23;;;;;;;4.50;3.67;;;;;;;18.06;40.09;100401.72;1801064;78;21197;-74
2021/05/11 02:51:50;;;;;;;4.28;3.83;;;;;;;18.06;40.15;100395.52;1792260;79;21166;-74
2021/05/11 02:54:18;;;;;;;4.03;3.42;;;;;;;18.07;40.28;100393.95;1793153;79;21193;-73
2021/05/11 02:56:46;;;;;;;5.15;3.55;;;;;;;18.08;40.33;100395.63;1763558;78;21929;-73
2021/05/11 02:59:14;;;;;;;5.40;3.85;;;;;;;18.10;40.38;100394.58;1785801;79;21162;-73
2021/05/11 03:01:41;;;;;;;4.55;3.92;;;;;;;18.11;40.39;100394.91;1786548;79;21050;-73
2021/05/11 03:04:10;;;;;;;5.17;3.80;;;;;;;18.13;40.43;100399.56;1795113;79;21177;-74
2021/05/11 03:06:38;;;;;;;5.97;3.75;;;;;;;18.15;40.48;100396.98;1785652;77;21194;-74
2021/05/11 03:09:06;;;;;;;6.42;3.95;;;;;;;18.16;40.49;100393.27;1805600;79;21170;-74
2021/05/11 03:11:34;;;;;;;4.78;4.37;;;;;;;18.18;40.51;100393.08;1800196;77;21575;-73
2021/05/11 03:14:03;;;;;;;4.85;3.90;;;;;;;18.19;40.51;100387.47;1785041;77;21539;-73
2021/05/11 03:16:33;;;;;;;5.33;3.30;;;;;;;18.20;40.49;100381.08;1793000;77;21205;-74
2021/05/11 03:19:01;;;;;;;4.15;3.40;;;;;;;18.22;40.52;100377.67;1798590;79;21366;-74
2021/05/11 03:21:31;;;;;;;4.28;3.85;;;;;;;18.23;40.47;100380.69;1807663;77;21190;-73
2021/05/11 03:24:00;;;;;;;4.22;3.30;;;;;;;18.23;40.50;100379.34;1805484;77;21157;-74
2021/05/11 03:26:28;;;;;;;4.25;3.45;;;;;;;18.25;40.46;100384.49;1807477;77;21643;-74
2021/05/11 03:28:55;;;;;;;4.08;3.50;;;;;;;18.26;40.36;100382.95;1802894;78;21162;-74
2021/05/11 03:31:22;;;;;;;33.45;24.70;;;;;;;18.29;40.22;100384.39;1803303;77;21437;-73
2021/05/11 03:33:51;;;;;;;14.78;11.95;;;;;;;18.30;40.04;100378.00;1799250;77;21149;-74
2021/05/11 03:36:20;;;;;;;23.02;16.48;;;;;;;18.33;39.89;100380.78;1778535;79;21615;-74
2021/05/11 03:38:51;;;;;;;16.35;12.63;;;;;;;18.35;39.76;100384.10;1771814;78;21180;-76
2021/05/11 03:41:19;;;;;;;14.18;10.58;;;;;;;18.38;39.89;100379.67;1802729;77;21524;-75
2021/05/11 03:46:34;;;;;;;10.75;8.73;;;;;;;18.47;40.24;100371.73;1771504;80;23737;-78
2021/05/11 03:49:09;;;;;;;12.37;10.13;;;;;;;18.49;40.03;100362.94;1789745;77;28101;-78
2021/05/11 03:51:44;;;;;;;9.58;7.72;;;;;;;18.84;39.38;100365.47;1835110;76;22694;-77
2021/05/11 03:54:30;;;;;;;7.90;6.95;;;;;;;19.04;38.72;100366.80;1811746;77;21179;-77
2021/05/11 03:57:05;;;;;;;7.20;5.55;;;;;;;19.02;38.59;100371.04;1824009;77;22672;-78
2021/05/11 03:59:46;;;;;;;7.08;5.72;;;;;;;19.03;38.42;100371.89;1757138;80;22849;-77
2021/05/11 04:02:21;;;;;;;7.72;5.55;;;;;;;19.03;38.25;100370.55;1842758;77;22616;-78
2021/05/11 04:05:10;;;;;;;7.67;5.15;;;;;;;19.01;38.11;100372.09;1812608;77;21613;-76
2021/05/11 04:07:48;;;;;;;5.97;4.15;;;;;;;19.05;37.93;100365.25;1846118;77;22695;-77
2021/05/11 04:13:24;;;;;;;6.45;4.65;;;;;;;19.09;37.55;100373.74;1831778;77;23106;-78
2021/05/11 04:18:37;;;;;;;4.78;4.05;;;;;;;19.17;37.24;100382.13;1830699;77;22741;-77
2021/05/11 04:21:17;;;;;;;5.75;4.62;;;;;;;19.21;37.16;100384.71;1762777;79;26616;-78
2021/05/11 04:23:53;;;;;;;8.35;3.52;;;;;;;19.21;37.05;100375.28;1825131;77;22691;-79
2021/05/11 04:26:34;;;;;;;6.12;3.62;;;;;;;19.30;37.00;100379.95;1754463;79;23384;-77
2021/05/11 04:29:20;;;;;;;5.15;3.75;;;;;;;19.31;36.98;100376.20;1732690;81;21581;-77
2021/05/11 04:31:55;;;;;;;4.40;3.65;;;;;;;19.39;36.94;100371.43;1829205;76;22700;-77
2021/05/11 04:34:30;;;;;;;5.58;3.70;;;;;;;19.44;36.80;100375.64;1831915;77;22788;-77
2021/05/11 04:37:12;;;;;;;6.65;3.62;;;;;;;19.48;36.72;100376.58;1745776;80;22757;-77
2021/05/11 04:39:46;;;;;;;5.47;4.33;;;;;;;19.53;36.75;100382.14;1787398;79;23724;-78
2021/05/11 04:42:33;;;;;;;4.92;3.85;;;;;;;19.52;36.65;100377.28;1760835;78;21647;-77
2021/05/11 04:45:10;;;;;;;4.67;3.77;;;;;;;19.59;36.50;100370.55;1760181;80;22784;-78
2021/05/11 04:47:47;;;;;;;8.93;4.37;;;;;;;19.63;36.38;100367.73;1792068;77;38385;-78
2021/05/11 04:50:24;;;;;;;7.20;4.15;;;;;;;19.96;35.88;100360.88;1843014;76;22146;-78
2021/05/11 04:52:59;;;;;;;6.50;4.40;;;;;;;20.18;35.48;100354.63;1824708;77;28800;-77
2021/05/11 04:55:34;;;;;;;6.22;3.83;;;;;;;20.43;35.12;100358.73;1851033;77;22747;-79
2021/05/11 04:58:10;;;;;;;4.77;3.83;;;;;;;20.61;34.78;100360.73;1822262;76;38776;-78
2021/05/11 05:00:47;;;;;;;4.47;3.42;;;;;;;20.81;34.46;100354.34;1804525;78;22692;-77
2021/05/11 05:03:26;;;;;;;7.17;4.08;;;;;;;20.96;34.16;100362.13;1746501;80;28157;-77
2021/05/11 05:05:59;;;;;;;5.10;3.80;;;;;;;21.14;33.85;100352.69;1771431;77;27894;-77
2021/05/11 05:08:34;;;;;;;3.62;3.20;;;;;;;21.49;33.27;100362.95;1839474;77;22673;-77
2021/05/11 05:11:09;;;;;;;4.55;3.60;;;;;;;21.58;32.99;100353.50;1813608;78;23397;-77
2021/05/11 05:13:44;;;;;;;7.78;3.40;;;;;;;21.41;33.15;100357.29;1787925;78;22777;-76
2021/05/11 05:16:19;;;;;;;3.90;2.90;;;;;;;21.29;33.18;100354.22;1842602;76;23238;-76
2021/05/11 05:18:54;;;;;;;5.55;3.52;;;;;;;21.19;33.24;100353.39;1836148;77;22653;-76
2021/05/11 05:21:29;;;;;;;4.47;2.80;;;;;;;21.12;33.32;100362.08;1837055;77;22741;-77
2021/05/11 05:24:29;;;;;;;3.50;2.90;;;;;;;21.05;33.46;100350.50;1761834;80;22958;-76
2021/05/11 05:27:13;;;;;;;5.40;3.30;;;;;;;20.98;33.50;100354.09;1774975;77;27921;-75
2021/05/11 05:29:40;;;;;;;4.50;2.90;;;;;;;21.25;33.06;100355.19;1853321;76;22813;-75
2021/05/11 05:32:34;;;;;;;4.03;2.90;;;;;;;21.37;32.92;100353.39;1835179;77;23379;-76
2021/05/11 05:35:10;;;;;;;7.08;3.05;;;;;;;21.25;32.94;100339.48;1797722;78;22747;-76
2021/05/11 05:37:45;;;;;;;5.85;3.00;;;;;;;21.18;32.99;100342.27;1846674;76;22784;-75
2021/05/11 05:40:21;;;;;;;3.80;2.83;;;;;;;21.12;32.98;100335.87;1834328;76;22748;-76
2021/05/11 05:42:56;;;;;;;5.72;3.20;;;;;;;21.09;33.07;100335.49;1792502;78;28525;-78
2021/05/11 05:45:31;;;;;;;4.45;2.72;;;;;;;21.34;32.91;100332.73;1827010;76;22681;-77
2021/05/11 05:48:07;;;;;;;3.92;3.17;;;;;;;21.52;32.65;100340.08;1850697;77;22767;-77
2021/05/11 05:50:42;;;;;;;6.50;3.37;;;;;;;21.43;32.67;100338.16;1829442;76;22685;-77
2021/05/11 05:56:05;;;;;;;4.70;3.08;;;;;;;21.30;32.84;100333.71;1811082;76;22538;-78
2021/05/11 05:58:51;;;;;;;5.17;3.30;;;;;;;21.24;32.83;100333.80;1779388;79;21587;-76
2021/05/11 06:01:29;;;;;;;4.08;3.00;;;;;;;21.24;32.85;100329.73;1754428;80;22711;-76
2021/05/11 06:04:12;;;;;;;5.12;2.80;;;;;;;21.21;32.88;100329.14;1771978;80;23203;-74
2021/05/11 06:06:49;;;;;;;3.67;2.87;;;;;;;21.19;32.84;100327.19;1835389;77;22812;-73
2021/05/11 06:09:25;;;;;;;4.37;2.60;;;;;;;21.18;32.83;100325.52;1830302;76;22687;-73
2021/05/11 06:14:59;;;;;;;3.58;2.87;;;;;;;21.17;32.93;100317.64;1807573;78;22706;-75
2021/05/11 06:17:21;;;;;;;5.27;3.10;;;;;;;21.17;32.97;100321.69;1783899;78;27967;-78
2021/05/11 06:19:56;;;;;;;5.25;3.37;;;;;;;21.47;32.58;100326.41;1822621;77;28388;-76
2021/05/11 06:22:41;;;;;;;3.70;2.67;;;;;;;21.86;32.03;100329.66;1807046;77;21183;-77
2021/05/11 06:25:23;;;;;;;2.90;2.60;;;;;;;22.05;31.75;100318.28;1806772;77;22772;-74
2021/05/11 06:28:00;;;;;;;4.15;3.25;;;;;;;21.93;31.75;100323.64;1829630;77;27823;-75
2021/05/11 06:30:36;;;;;;;3.22;2.83;;;;;;;22.15;31.41;100315.84;1848478;76;22662;-75
2021/05/11 06:33:12;;;;;;;4.47;2.75;;;;;;;22.27;31.06;100319.95;1822375;77;22607;-75
2021/05/11 06:35:49;;;;;;;4.35;2.72;;;;;;;22.15;31.10;100315.84;1816124;76;22686;-75
2021/05/11 06:38:23;;;;;;;4.83;3.03;;;;;;;22.06;31.10;100323.47;1805633;77;27939;-74
2021/05/11 06:40:59;;;;;;;4.20;2.20;;;;;;;22.27;30.94;100321.31;1843888;77;22691;-74
2021/05/11 06:43:43;;;;;;;3.83;2.50;;;;;;;22.40;30.78;100317.05;1750950;79;22819;-75
2021/05/11 06:54:23;;;;;;;3.33;2.50;;;;;;;22.68;30.06;100314.23;1845243;77;22784;-78
2021/05/11 06:56:57;;;;;;;2.83;2.55;;;;;;;22.78;30.04;100310.40;1761928;80;23392;-79
2021/05/11 06:59:32;;;;;;;2.95;2.45;;;;;;;22.62;30.23;100305.66;1829971;76;22784;-82
2021/05/11 07:02:07;;;;;;;3.10;2.27;;;;;;;22.49;30.42;100306.72;1750733;80;22771;-77
2021/05/11 07:04:44;;;;;;;2.47;2.02;;;;;;;22.41;30.55;100314.66;1826686;76;22698;-79
2021/05/11 07:07:20;;;;;;;4.08;2.52;;;;;;;22.32;30.68;100308.73;1860297;76;28365;-76
2021/05/11 07:15:36;;;;;;;3.58;2.50;;;;;;;23.27;29.93;100303.39;1761554;80;22781;-77
2021/05/11 07:18:15;;;;;;;3.98;2.75;;;;;;;23.26;29.93;100304.46;1818979;76;22628;-77
2021/05/11 07:20:57;;;;;;;2.58;2.20;;;;;;;23.05;30.11;100300.48;1837355;77;22748;-75
2021/05/11 07:23:32;;;;;;;2.55;2.20;;;;;;;22.86;30.25;100297.03;1842412;76;22778;-73
2021/05/11 07:31:36;;;;;;;2.72;2.27;;;;;;;23.31;29.79;100299.98;1849068;76;22667;-73
2021/05/11 07:34:14;;;;;;;3.17;2.70;;;;;;;23.36;29.81;100303.31;1799236;77;28593;-74
2021/05/11 07:36:55;;;;;;;4.10;2.50;;;;;;;23.46;29.82;100294.56;1781134;78;22705;-73
2021/05/11 07:39:30;;;;;;;3.27;2.42;;;;;;;23.50;29.69;100305.22;1815494;76;22687;-76
2021/05/11 07:42:06;;;;;;;5.83;2.55;;;;;;;23.28;29.71;100289.59;1796887;79;22787;-74
2021/05/11 07:44:45;;;;;;;3.77;2.40;;;;;;;23.13;29.97;100292.80;1811195;78;22930;-73
2021/05/11 08:01:59;;;;;;;3.43;2.83;;;;;;;22.58;30.84;100258.77;1787445;79;23213;-76
2021/05/11 08:10:47;;;;;;;2.87;2.25;;;;;;;22.47;31.60;100231.69;1804511;77;27712;-74
2021/05/11 08:18:49;;;;;;;2.30;2.00;;;;;;;22.77;31.55;100254.06;1830146;77;22805;-74
2021/05/11 08:30:49;;;;;;;2.80;2.50;;;;;;;22.65;32.59;100236.16;1869250;75;23221;-78
2021/05/11 08:33:26;;;;;;;3.92;2.58;;;;;;;22.62;32.52;100240.17;1780013;77;27936;-76
2021/05/11 08:36:07;;;;;;;4.12;2.47;;;;;;;22.93;32.10;100244.92;1825675;76;22708;-76
2021/05/11 08:38:42;;;;;;;4.10;2.20;;;;;;;23.08;32.16;100235.80;1766734;80;23018;-75
2021/05/11 08:41:20;;;;;;;3.45;2.60;;;;;;;23.00;32.61;100232.05;1806826;77;27911;-76
2021/05/11 08:43:55;;;;;;;4.07;2.40;;;;;;;23.24;32.59;100230.70;1819544;77;27834;-79
2021/05/11 08:46:37;;;;;;;2.60;2.02;;;;;;;23.64;32.38;100227.12;1843105;77;22665;-80
2021/05/11 08:49:14;;;;;;;3.95;2.47;;;;;;;23.73;32.48;100222.41;1833313;76;22733;-75
2021/05/11 08:52:00;;;;;;;2.20;1.95;;;;;;;23.60;32.77;100217.28;1828530;76;22689;-75
2021/05/11 09:06:18;;;;;;;2.67;2.22;;;;;;;23.91;32.90;100211.09;1798027;78;22764;-75
2021/05/11 09:28:33;;;;;;;2.33;1.98;;;;;;;23.52;33.87;100185.14;1835056;76;22648;-73
2021/05/11 09:31:16;;;;;;;5.30;2.25;;;;;;;23.52;34.01;100178.36;1817561;76;22688;-72
2021/05/11 10:49:35;;;;;;;2.30;2.10;;;;;;;25.94;33.53;100091.36;1785649;79;22780;-79
2021/05/11 10:52:20;;;;;;;3.65;2.10;;;;;;;26.06;33.55;100090.09;1764848;80;22719;-76
2021/05/11 10:55:24;;;;;;;2.83;2.12;;;;;;;26.19;33.53;100087.98;1832281;77;22840;-77
2021/05/11 10:58:03;;;;;;;2.90;2.15;;;;;;;26.28;33.41;100087.22;1846339;77;22682;-78
2021/05/11 11:00:43;;;;;;;2.30;2.02;;;;;;;26.42;33.42;100083.47;1788001;79;22804;-78
2021/05/11 11:03:27;;;;;;;2.77;2.30;;;;;;;26.54;33.19;100084.64;1783735;77;22655;-74
2021/05/11 11:06:02;;;;;;;2.35;2.15;;;;;;;26.66;33.19;100081.17;1757414;79;22869;-77
2021/05/11 11:08:42;;;;;;;2.10;1.90;;;;;;;26.79;32.87;100079.02;1834239;76;22650;-80
2021/05/11 11:11:22;;;;;;;2.30;2.10;;;;;;;26.91;32.69;100080.98;1869743;74;22647;-74
2021/05/11 11:13:57;;;;;;;2.02;1.82;;;;;;;27.04;32.70;100073.66;1841856;76;23304;-74
2021/05/11 11:16:33;;;;;;;3.80;2.05;;;;;;;27.17;32.60;100081.03;1818884;77;22683;-76
2021/05/11 11:19:09;;;;;;;3.40;2.10;;;;;;;27.30;32.56;100077.00;1816153;76;22688;-76
2021/05/11 11:24:30;;;;;;;2.22;1.98;;;;;;;27.54;32.84;100076.72;1809441;78;22768;-79
2021/05/11 11:27:06;;;;;;;2.52;2.20;;;;;;;27.68;32.96;100062.01;1829454;77;22745;-79
2021/05/11 11:30:06;;;;;;;2.42;2.10;;;;;;;27.75;33.03;100064.45;1799769;78;21131;-77
2021/05/11 11:32:41;;;;;;;2.72;2.15;;;;;;;27.92;33.03;100066.37;1822054;77;22842;-76
2021/05/11 11:35:18;;;;;;;2.63;2.40;;;;;;;28.04;33.39;100055.95;1813440;77;27728;-78
2021/05/11 11:37:55;;;;;;;2.60;1.92;;;;;;;28.42;32.82;100058.31;1766784;80;22715;-76
2021/05/11 11:40:38;;;;;;;3.92;2.30;;;;;;;28.70;32.82;100051.38;1777825;77;22878;-80
2021/05/11 11:53:46;;;;;;;1.75;1.62;;;;;;;28.97;33.08;100026.89;1848681;76;22738;-77
2021/05/11 11:56:36;;;;;;;2.50;2.20;;;;;;;29.04;32.68;100034.23;1785134;77;27910;-76
2021/05/11 11:59:14;;;;;;;2.30;2.10;;;;;;;29.41;31.73;100027.41;1780251;79;28510;-75
2021/05/11 12:01:58;;;;;;;3.12;2.35;;;;;;;29.93;31.09;100020.93;1783279;79;22750;-75
2021/05/11 12:04:34;;;;;;;2.08;1.87;;;;;;;30.15;31.23;100021.77;1761250;80;22848;-78
2021/05/11 12:07:10;;;;;;;1.95;1.85;;;;;;;30.16;31.13;100018.74;1821296;77;23291;-78
2021/05/11 12:09:48;;;;;;;2.83;2.20;;;;;;;30.25;31.26;100019.45;1797846;76;27794;-76
2021/05/11 12:12:22;;;;;;;2.60;2.20;;;;;;;30.56;30.56;100022.67;1788648;77;30836;-75
2021/05/11 12:15:13;;;;;;;2.27;2.08;;;;;;;31.03;30.03;100019.55;1797007;78;22764;-75
2021/05/11 12:18:07;;;;;;;2.58;1.75;;;;;;;31.24;30.10;100015.12;1827820;77;22625;-77
2021/05/11 12:20:41;;;;;;;1.92;1.75;;;;;;;31.24;30.33;100009.63;1760357;80;22912;-76
2021/05/11 12:23:18;;;;;;;2.02;1.90;;;;;;;31.26;30.39;100010.15;1842530;76;22609;-74
2021/05/11 12:25:58;;;;;;;2.83;1.80;;;;;;;31.35;30.58;100007.79;1822191;77;22642;-75
2021/05/11 12:28:43;;;;;;;1.98;1.77;;;;;;;31.63;30.50;99998.83;1848634;76;22824;-78
2021/05/11 12:31:20;;;;;;;2.40;1.70;;;;;;;31.92;30.28;99999.36;1838984;77;22717;-74
2021/05/11 12:33:54;;;;;;;2.60;1.90;;;;;;;32.25;30.22;100006.14;1770034;77;27947;-76
2021/05/11 12:36:29;;;;;;;3.87;2.20;;;;;;;32.79;29.63;99999.50;1842259;76;22671;-76
2021/05/11 12:39:42;;;;;;;2.67;1.75;;;;;;;33.29;29.81;99988.98;1840080;76;22720;-78
2021/05/11 12:42:25;;;;;;;2.17;1.95;;;;;;;33.64;30.22;99991.95;1784749;78;22829;-76
2021/05/11 12:45:15;;;;;;;1.62;1.52;;;;;;;33.95;29.97;99978.14;1828338;77;22683;-72
2021/05/11 12:47:53;;;;;;;7.12;2.20;;;;;;;34.25;29.85;99983.36;1753423;79;23411;-69
2021/05/11 12:50:39;;;;;;;1.60;1.50;;;;;;;34.54;29.38;99984.70;1762017;80;22713;-71
2021/05/11 12:53:34;;;;;;;2.35;1.80;;;;;;;34.80;29.42;99977.83;1837620;77;22771;-73
2021/05/11 12:56:16;;;;;;;2.47;1.95;;;;;;;35.06;29.22;99975.64;1827482;76;22655;-72
2021/05/11 13:02:00;;;;;;;2.20;1.90;;;;;;;35.27;28.51;99954.26;1827310;77;27959;-71
2021/05/11 13:15:57;;;;;;;3.30;2.62;;;;;;;33.71;30.08;99948.78;1769038;80;22914;-77
2021/05/11 13:26:27;;;;;;;3.85;2.40;;;;;;;32.24;28.61;99939.11;1823801;76;22739;-76
2021/05/11 13:29:26;;;;;;;2.30;1.90;;;;;;;31.92;28.32;99934.00;1809921;77;22084;-81
2021/05/11 13:31:57;;;;;;;3.93;2.60;;;;;;;31.71;27.82;99930.84;1796698;77;28457;-76
2021/05/11 13:34:31;;;;;;;3.77;2.43;;;;;;;31.71;27.44;99928.90;1787620;77;28513;-80
2021/05/11 13:37:06;;;;;;;3.40;2.45;;;;;;;31.85;26.69;99923.43;1821341;76;28026;-81
2021/05/11 13:39:42;;;;;;;2.30;1.93;;;;;;;32.01;26.20;99921.71;1824858;77;27794;-77
2021/05/11 13:42:17;;;;;;;2.17;1.98;;;;;;;32.10;25.65;99919.91;1841588;77;23296;-75
2021/05/11 13:44:54;;;;;;;2.70;1.92;;;;;;;31.99;25.84;99915.17;1827007;77;22678;-77
2021/05/11 13:47:30;;;;;;;7.53;2.10;;;;;;;31.63;26.00;99912.34;1821438;77;22770;-79
2021/05/11 13:50:07;;;;;;;3.20;1.95;;;;;;;31.31;26.30;99913.98;1834324;77;22729;-78
2021/05/11 13:52:42;;;;;;;3.53;2.20;;;;;;;31.02;26.75;99908.17;1786228;77;27835;-80
2021/05/11 13:55:24;;;;;;;3.05;2.20;;;;;;;31.02;26.71;99915.03;1819401;77;22647;-80
2021/05/11 14:03:42;;;;;;;2.35;2.10;;;;;;;30.33;27.62;99902.41;1837293;76;22772;-75
2021/05/11 14:06:17;;;;;;;4.35;2.50;;;;;;;30.09;27.19;99905.15;1812486;76;22681;-70
2021/05/11 14:08:52;;;;;;;3.77;2.22;;;;;;;29.86;27.55;99903.52;1823210;76;22793;-73
2021/05/11 14:11:27;;;;;;;4.62;2.58;;;;;;;29.66;27.61;99901.81;1753360;79;22879;-71
2021/05/11 14:14:04;;;;;;;2.70;1.95;;;;;;;29.48;27.62;99901.22;1842593;77;22848;-73
2021/05/11 14:16:45;;;;;;;3.95;2.10;;;;;;;29.29;28.11;99909.34;1763218;80;22861;-73
2021/05/11 14:19:20;;;;;;;3.50;1.70;;;;;;;29.12;28.13;99901.52;1815058;76;23132;-71
2021/05/11 14:21:55;;;;;;;3.02;1.80;;;;;;;28.96;27.95;99891.28;1823213;77;22674;-69
2021/05/11 14:24:30;;;;;;;2.90;2.27;;;;;;;28.79;28.28;99900.70;1754612;80;23720;-73
2021/05/11 14:27:06;;;;;;;2.95;2.52;;;;;;;28.66;28.04;99909.55;1825351;77;22791;-72
2021/05/11 14:29:43;;;;;;;3.25;2.05;;;;;;;28.53;28.49;99904.19;1825011;77;22036;-71
2021/05/11 14:32:18;;;;;;;5.15;2.60;;;;;;;28.41;28.62;99903.14;1774827;77;28078;-70
2021/05/11 14:34:54;;;;;;;4.20;2.80;;;;;;;28.56;28.96;99901.42;1811919;77;38164;-70
2021/05/11 14:37:29;;;;;;;2.83;2.40;;;;;;;28.88;32.28;99895.45;1816335;76;22678;-69
2021/05/11 14:40:07;;;;;;;4.17;2.90;;;;;;;28.90;33.47;99891.88;1824664;77;27834;-66
2021/05/11 14:42:43;;;;;;;5.12;2.92;;;;;;;28.92;34.23;99897.06;1773458;77;27896;-67
2021/05/11 14:45:18;;;;;;;3.70;2.75;;;;;;;29.15;33.83;99896.33;1769132;77;27999;-68
2021/05/11 14:48:05;;;;;;;4.30;2.58;;;;;;;29.26;33.92;99894.30;1758980;79;21190;-70
2021/05/11 14:50:40;;;;;;;4.50;2.70;;;;;;;29.24;33.97;99890.23;1798594;77;38205;-70
2021/05/11 14:53:15;;;;;;;4.12;2.58;;;;;;;29.17;33.57;99883.74;1844995;77;22746;-71
2021/05/11 14:55:50;;;;;;;4.50;2.50;;;;;;;29.13;34.04;99888.97;1769652;80;22851;-69
2021/05/11 14:58:25;;;;;;;4.47;2.35;;;;;;;28.82;33.13;99882.38;1820460;76;22736;-69
2021/05/11 15:01:00;;;;;;;4.75;2.27;;;;;;;28.56;33.15;99889.13;1841329;76;22765;-70
2021/05/11 15:03:35;;;;;;;7.12;5.00;;;;;;;28.34;32.97;99884.88;1844259;77;22750;-66
2021/05/11 15:06:10;;;;;;;9.25;4.53;;;;;;;28.14;33.25;99876.23;1813560;77;22802;-70
2021/05/11 15:08:45;;;;;;;5.85;3.30;;;;;;;27.97;33.76;99879.87;1817593;77;22700;-70
2021/05/11 15:11:20;;;;;;;6.47;3.45;;;;;;;27.82;34.65;99884.28;1763605;80;22874;-66
2021/05/11 15:13:57;;;;;;;8.10;3.52;;;;;;;27.69;35.35;99881.34;1830095;77;22751;-73
2021/05/11 15:16:37;;;;;;;9.83;3.40;;;;;;;27.56;36.24;99874.55;1786945;77;27861;-67
2021/05/11 15:19:10;;;;;;;5.77;3.30;;;;;;;27.73;35.17;99875.03;1770063;77;27949;-66
2021/05/11 15:21:45;;;;;;;7.63;3.20;;;;;;;28.06;34.86;99870.56;1785934;78;27934;-72
2021/05/11 15:24:20;;;;;;;5.10;2.72;;;;;;;28.30;34.07;99868.78;1813316;77;23191;-72
2021/05/11 15:26:55;;;;;;;4.45;2.95;;;;;;;28.31;34.11;99869.03;1819902;76;22658;-72
2021/05/11 15:29:30;;;;;;;23.30;7.97;;;;;;;28.08;35.06;99866.99;1815106;76;22676;-70
2021/05/11 15:32:48;;;;;;;10.68;4.17;;;;;;;27.85;37.13;99867.36;1783424;80;21159;-70
2021/05/11 15:35:33;;;;;;;7.42;3.50;;;;;;;27.67;36.39;99869.33;1818538;77;22726;-69
2021/05/11 15:38:09;;;;;;;6.90;3.57;;;;;;;27.49;35.97;99867.20;1813844;76;28012;-69
2021/05/11 15:40:44;;;;;;;7.33;3.40;;;;;;;27.63;35.00;99866.89;1788434;77;27989;-68
2021/05/11 15:43:19;;;;;;;7.60;3.10;;;;;;;27.95;33.52;99877.45;1746312;80;22829;-69
2021/05/11 15:46:06;;;;;;;5.40;3.05;;;;;;;27.97;32.87;99869.79;1720392;81;21196;-68
2021/05/11 15:48:41;;;;;;;6.77;3.60;;;;;;;27.77;33.20;99871.20;1827926;77;28455;-73
2021/05/11 15:51:17;;;;;;;5.95;3.10;;;;;;;27.86;33.55;99866.80;1808046;77;22888;-66
2021/05/11 15:53:52;;;;;;;9.33;3.95;;;;;;;27.92;33.82;99858.08;1800383;77;27884;-67
2021/05/11 15:56:27;;;;;;;11.15;3.00;;;;;;;27.96;34.31;99861.31;1762895;79;22734;-68
2021/05/11 15:59:05;;;;;;;4.80;2.98;;;;;;;27.99;34.17;99858.03;1795747;78;22666;-66
2021/05/11 16:01:50;;;;;;;5.45;2.92;;;;;;;27.74;33.81;99869.02;1777105;79;21587;-70
2021/05/11 16:04:25;;;;;;;3.70;2.55;;;;;;;27.52;33.59;99863.92;1835826;77;22849;-73
2021/05/11 16:07:00;;;;;;;6.50;3.00;;;;;;;27.35;33.65;99868.33;1802830;77;23176;-73
2021/05/11 16:09:35;;;;;;;6.03;3.02;;;;;;;27.20;33.73;99862.35;1822657;76;22677;-70
2021/05/11 16:12:10;;;;;;;4.50;2.75;;;;;;;27.07;33.72;99855.54;1830426;76;22837;-69
2021/05/11 16:14:45;;;;;;;3.85;2.65;;;;;;;26.94;33.75;99858.83;1794903;79;22579;-69
2021/05/11 16:17:20;;;;;;;4.50;2.70;;;;;;;26.82;34.09;99851.73;1767921;80;22744;-69
2021/05/11 16:19:56;;;;;;;6.92;3.10;;;;;;;26.70;33.82;99843.03;1800020;77;28491;-72
2021/05/11 16:22:32;;;;;;;7.50;4.72;;;;;;;26.89;33.86;99851.48;1801900;77;23422;-68
2021/05/11 16:25:17;;;;;;;3.70;3.30;;;;;;;26.96;34.01;99852.00;1741459;79;21186;-71
2021/05/11 16:28:03;;;;;;;4.62;2.83;;;;;;;26.80;34.43;99848.47;1796353;77;23393;-70
2021/05/11 16:30:41;;;;;;;11.90;7.60;;;;;;;26.66;34.74;99845.48;1818868;77;22650;-72
2021/05/11 16:33:22;;;;;;;49.90;42.58;;;;;;;26.56;36.03;99849.55;1842613;77;22657;-69
2021/05/11 16:35:57;;;;;;;78.40;70.17;;;;;;;26.45;36.39;99850.06;1803313;77;22965;-70